Time;durP1;ratioP1;P1;durP2;ratioP2;P2;SDS_P1;SDS_P2;PMS_P1;PMS_P2;Temp;Humidity;BMP_temperature;BMP_pressure;BME280_temperature;BME280_humidity;BME280_pressure;Samples;Min_cycle;Max_cycle;Signal;HPM_P1;HPM_P2
2022/11/01 00:00:19;;;;;;;18.63;11.23;;;;;;;;;;4937602;28;20187;-36
2022/11/01 00:02:45;;;;;;;19.63;11.10;;;;;;;;;;4935574;28;20504;-37
2022/11/01 00:05:11;;;;;;;17.63;10.90;;;;;;;;;;4933656;28;20205;-36
2022/11/01 00:07:37;;;;;;;17.50;10.83;;;;;;;;;;4932602;28;20198;-36
2022/11/01 00:10:04;;;;;;;19.17;10.73;;;;;;;;;;4929433;28;20193;-36
2022/11/01 00:12:30;;;;;;;21.60;11.17;;;;;;;;;;4938679;28;20229;-36
2022/11/01 00:14:57;;;;;;;17.93;11.77;;;;;;;;;;4936912;28;20646;-36
2022/11/01 00:17:23;;;;;;;16.77;11.43;;;;;;;;;;4934163;28;20773;-36
2022/11/01 00:19:49;;;;;;;22.20;12.00;;;;;;;;;;4931069;28;20298;-37
2022/11/01 00:22:15;;;;;;;18.87;11.20;;;;;;;;;;4932354;28;20483;-36
2022/11/01 00:24:41;;;;;;;21.93;14.63;;;;;;;;;;4932272;28;20194;-36
2022/11/01 00:27:07;;;;;;;28.87;17.23;;;;;;;;;;4936640;28;20737;-36
2022/11/01 00:29:33;;;;;;;25.30;17.80;;;;;;;;;;4931677;28;20183;-37
2022/11/01 00:31:59;;;;;;;29.73;16.90;;;;;;;;;;4933681;28;20367;-36
2022/11/01 00:34:25;;;;;;;25.97;17.73;;;;;;;;;;4934783;28;20306;-36
2022/11/01 00:36:51;;;;;;;30.10;16.30;;;;;;;;;;4936103;28;20385;-36
2022/11/01 00:39:18;;;;;;;24.00;16.87;;;;;;;;;;4932324;28;20616;-37
2022/11/01 00:41:44;;;;;;;22.20;14.07;;;;;;;;;;4933455;28;20180;-36
2022/11/01 00:44:10;;;;;;;19.40;12.40;;;;;;;;;;4934657;28;20178;-36
2022/11/01 00:46:36;;;;;;;17.40;12.00;;;;;;;;;;4939893;28;20229;-37
2022/11/01 00:49:02;;;;;;;21.80;11.97;;;;;;;;;;4934633;28;20426;-36
2022/11/01 00:51:28;;;;;;;18.60;10.17;;;;;;;;;;4937984;28;20680;-36
2022/11/01 00:53:54;;;;;;;17.77;9.67;;;;;;;;;;4941457;28;20933;-36
2022/11/01 00:56:20;;;;;;;17.93;9.47;;;;;;;;;;4936975;28;20484;-36
2022/11/01 00:58:46;;;;;;;17.23;10.87;;;;;;;;;;4935333;28;20187;-36
2022/11/01 01:01:12;;;;;;;17.07;9.33;;;;;;;;;;4940024;28;20191;-36
2022/11/01 01:03:38;;;;;;;13.20;8.63;;;;;;;;;;4941324;28;20310;-36
2022/11/01 01:06:05;;;;;;;13.23;8.20;;;;;;;;;;4937962;28;20225;-36
2022/11/01 01:08:31;;;;;;;16.17;7.60;;;;;;;;;;4939501;28;20693;-36
2022/11/01 01:10:57;;;;;;;10.73;6.70;;;;;;;;;;4944709;28;20182;-36
2022/11/01 01:13:23;;;;;;;11.07;6.63;;;;;;;;;;4940608;28;21004;-36
2022/11/01 01:15:49;;;;;;;14.23;7.30;;;;;;;;;;4939716;28;20186;-35
2022/11/01 01:18:15;;;;;;;11.97;6.50;;;;;;;;;;4941783;28;20723;-35
2022/11/01 01:20:42;;;;;;;9.23;6.17;;;;;;;;;;4938486;28;20184;-36
2022/11/01 01:23:08;;;;;;;10.60;6.10;;;;;;;;;;4936094;28;20441;-36
2022/11/01 01:25:34;;;;;;;12.40;6.47;;;;;;;;;;4937465;28;20205;-36
2022/11/01 01:28:00;;;;;;;12.60;6.77;;;;;;;;;;4938053;28;20461;-35
2022/11/01 01:30:26;;;;;;;10.30;5.80;;;;;;;;;;4939743;28;20651;-35
2022/11/01 01:32:52;;;;;;;10.77;6.63;;;;;;;;;;4936848;28;20604;-36
2022/11/01 01:35:18;;;;;;;12.83;6.67;;;;;;;;;;4934297;28;20366;-36
2022/11/01 01:37:44;;;;;;;11.10;6.70;;;;;;;;;;4938215;28;21126;-36
2022/11/01 01:40:10;;;;;;;13.57;7.10;;;;;;;;;;4936389;28;20449;-36
2022/11/01 01:42:40;;;;;;;15.53;7.20;;;;;;;;;;4931885;28;20760;-36
2022/11/01 01:45:25;;;;;;;15.33;7.80;;;;;;;;;;4941889;28;20199;-36
2022/11/01 01:47:52;;;;;;;14.17;7.33;;;;;;;;;;4933966;28;20334;-35
2022/11/01 01:50:27;;;;;;;15.63;7.73;;;;;;;;;;4932600;28;20213;-36
2022/11/01 01:53:08;;;;;;;11.57;6.93;;;;;;;;;;4938261;28;20240;-37
2022/11/01 01:55:42;;;;;;;12.00;6.70;;;;;;;;;;4934329;28;20190;-36
2022/11/01 01:58:10;;;;;;;11.30;6.60;;;;;;;;;;4931962;28;20544;-36
2022/11/01 02:00:36;;;;;;;15.73;6.97;;;;;;;;;;4936217;28;20207;-34
2022/11/01 02:03:03;;;;;;;11.50;6.20;;;;;;;;;;4934125;28;20525;-36
2022/11/01 02:05:48;;;;;;;10.53;5.83;;;;;;;;;;4934221;28;20323;-36
2022/11/01 02:08:14;;;;;;;11.00;6.37;;;;;;;;;;4935729;28;20198;-36
2022/11/01 02:10:41;;;;;;;9.73;5.20;;;;;;;;;;4927434;28;20190;-36
2022/11/01 02:13:11;;;;;;;7.87;5.27;;;;;;;;;;4928882;28;20178;-35
2022/11/01 02:15:41;;;;;;;11.67;5.20;;;;;;;;;;4933827;28;20185;-36
2022/11/01 02:18:07;;;;;;;8.47;5.10;;;;;;;;;;4931923;28;20450;-36
2022/11/01 02:20:45;;;;;;;7.77;5.33;;;;;;;;;;4929682;28;20682;-36
2022/11/01 02:23:23;;;;;;;9.40;5.43;;;;;;;;;;4933148;28;20781;-36
2022/11/01 02:25:59;;;;;;;9.40;5.10;;;;;;;;;;4935431;28;20754;-35
2022/11/01 02:28:35;;;;;;;8.67;5.63;;;;;;;;;;4926932;28;20699;-36
2022/11/01 02:31:17;;;;;;;10.37;5.30;;;;;;;;;;4932963;28;20252;-36
2022/11/01 02:34:03;;;;;;;10.30;5.30;;;;;;;;;;4935460;28;20647;-36
2022/11/01 02:36:32;;;;;;;9.63;6.23;;;;;;;;;;4935281;28;20194;-36
2022/11/01 02:39:00;;;;;;;7.80;5.57;;;;;;;;;;4934677;28;20183;-37
2022/11/01 02:41:47;;;;;;;10.17;5.87;;;;;;;;;;4940873;28;20249;-36
2022/11/01 02:44:19;;;;;;;14.80;6.40;;;;;;;;;;4935906;28;20814;-36
2022/11/01 02:47:00;;;;;;;11.57;6.47;;;;;;;;;;4933968;28;20199;-35
2022/11/01 02:49:28;;;;;;;11.20;6.40;;;;;;;;;;4936089;28;20178;-36
2022/11/01 02:51:54;;;;;;;17.00;7.47;;;;;;;;;;4937348;28;20584;-36
2022/11/01 02:54:47;;;;;;;11.47;7.57;;;;;;;;;;4930340;28;20573;-35
2022/11/01 02:57:16;;;;;;;10.70;7.63;;;;;;;;;;4926963;28;20762;-35
2022/11/01 02:59:45;;;;;;;11.77;7.87;;;;;;;;;;4936984;28;20314;-36
2022/11/01 03:02:38;;;;;;;15.83;9.27;;;;;;;;;;4936124;28;20254;-36
2022/11/01 03:05:10;;;;;;;12.33;8.10;;;;;;;;;;4931069;28;20596;-36
2022/11/01 03:07:36;;;;;;;14.67;7.97;;;;;;;;;;4932604;28;20182;-37
2022/11/01 03:10:02;;;;;;;14.43;7.80;;;;;;;;;;4935919;28;20750;-36
2022/11/01 03:12:32;;;;;;;13.23;7.60;;;;;;;;;;4931934;28;20198;-36
2022/11/01 03:15:19;;;;;;;14.80;7.93;;;;;;;;;;4932909;28;20182;-36
2022/11/01 03:17:59;;;;;;;15.00;7.60;;;;;;;;;;4931189;28;20190;-36
2022/11/01 03:20:46;;;;;;;15.57;8.43;;;;;;;;;;4930364;28;20224;-35
2022/11/01 03:23:12;;;;;;;11.17;7.70;;;;;;;;;;4936648;28;20166;-36
2022/11/01 03:25:43;;;;;;;12.27;8.33;;;;;;;;;;4935439;28;20541;-36
2022/11/01 03:28:12;;;;;;;13.10;7.80;;;;;;;;;;4932241;28;20781;-35
2022/11/01 03:30:43;;;;;;;10.97;6.83;;;;;;;;;;4929838;28;20190;-36
2022/11/01 03:33:10;;;;;;;10.40;6.83;;;;;;;;;;4935870;28;20388;-35
2022/11/01 03:35:38;;;;;;;11.13;6.57;;;;;;;;;;4934914;28;20315;-36
2022/11/01 03:38:06;;;;;;;14.60;6.67;;;;;;;;;;4930629;28;20584;-35
2022/11/01 03:40:33;;;;;;;13.50;6.33;;;;;;;;;;4936809;28;20205;-36
2022/11/01 03:43:01;;;;;;;11.83;5.70;;;;;;;;;;4934146;28;20584;-35
2022/11/01 03:45:29;;;;;;;13.33;5.37;;;;;;;;;;4933265;28;20237;-36
2022/11/01 03:47:55;;;;;;;10.67;5.63;;;;;;;;;;4931388;28;20179;-36
2022/11/01 03:50:22;;;;;;;9.60;5.07;;;;;;;;;;4933466;28;20356;-36
2022/11/01 03:52:49;;;;;;;8.17;5.13;;;;;;;;;;4929684;28;20184;-37
2022/11/01 03:55:18;;;;;;;9.20;4.90;;;;;;;;;;4936581;28;20695;-36
2022/11/01 03:57:45;;;;;;;10.23;5.07;;;;;;;;;;4937235;28;20214;-36
2022/11/01 04:00:14;;;;;;;9.03;4.83;;;;;;;;;;4932697;28;20678;-36
2022/11/01 04:02:41;;;;;;;8.87;4.57;;;;;;;;;;4935153;28;20227;-36
2022/11/01 04:05:07;;;;;;;8.77;5.00;;;;;;;;;;4936493;28;20611;-36
2022/11/01 04:07:33;;;;;;;7.60;4.57;;;;;;;;;;4931116;28;20632;-36
2022/11/01 04:09:59;;;;;;;9.50;4.87;;;;;;;;;;4933086;28;20182;-35
2022/11/01 04:12:25;;;;;;;9.13;4.73;;;;;;;;;;4934647;28;20175;-35
2022/11/01 04:20:33;;;;;;;7.70;4.40;;;;;;;;;;4931120;28;20174;-36
2022/11/01 04:23:06;;;;;;;6.83;4.30;;;;;;;;;;4935127;28;20281;-36
2022/11/01 04:25:32;;;;;;;9.33;4.60;;;;;;;;;;4932405;28;20330;-35
2022/11/01 04:27:59;;;;;;;8.10;4.00;;;;;;;;;;4932207;28;20213;-36
2022/11/01 04:30:29;;;;;;;9.73;4.50;;;;;;;;;;4935621;28;20345;-36
2022/11/01 04:32:55;;;;;;;9.00;4.60;;;;;;;;;;4936440;28;20789;-36
2022/11/01 04:35:22;;;;;;;6.07;4.07;;;;;;;;;;4934668;28;20760;-35
2022/11/01 04:37:48;;;;;;;7.73;4.50;;;;;;;;;;4934274;28;20206;-36
2022/11/01 04:40:14;;;;;;;11.07;4.60;;;;;;;;;;4938014;28;20171;-36
2022/11/01 04:42:40;;;;;;;7.03;4.50;;;;;;;;;;4937369;28;20505;-36
2022/11/01 04:45:08;;;;;;;7.73;3.90;;;;;;;;;;4935489;28;20187;-36
2022/11/01 04:47:34;;;;;;;9.47;4.63;;;;;;;;;;4933205;28;20205;-36
2022/11/01 04:50:00;;;;;;;6.90;3.80;;;;;;;;;;4936327;28;20194;-35
2022/11/01 04:52:26;;;;;;;7.10;4.47;;;;;;;;;;4940838;28;20819;-35
2022/11/01 04:54:52;;;;;;;7.10;4.10;;;;;;;;;;4937327;28;20895;-36
2022/11/01 04:57:21;;;;;;;7.97;4.00;;;;;;;;;;4932859;28;20200;-36
2022/11/01 04:59:56;;;;;;;7.03;4.50;;;;;;;;;;4936208;28;20180;-36
2022/11/01 05:02:23;;;;;;;6.50;4.23;;;;;;;;;;4922527;28;20512;-36
2022/11/01 05:04:50;;;;;;;8.87;3.80;;;;;;;;;;4927373;28;20214;-35
2022/11/01 05:07:16;;;;;;;7.00;3.83;;;;;;;;;;4932658;28;20170;-36
2022/11/01 05:09:42;;;;;;;5.43;3.43;;;;;;;;;;4937058;28;20183;-35
2022/11/01 05:12:09;;;;;;;5.67;2.90;;;;;;;;;;4932209;28;20186;-35
2022/11/01 05:14:35;;;;;;;5.67;3.10;;;;;;;;;;4928608;28;20171;-35
2022/11/01 05:17:01;;;;;;;7.07;3.60;;;;;;;;;;4926681;28;20683;-36
2022/11/01 05:19:27;;;;;;;6.03;3.63;;;;;;;;;;4928676;28;20922;-36
2022/11/01 05:21:53;;;;;;;5.17;3.00;;;;;;;;;;4932765;28;20218;-36
2022/11/01 05:24:20;;;;;;;5.27;3.17;;;;;;;;;;4928580;28;20239;-36
2022/11/01 05:26:46;;;;;;;4.60;2.63;;;;;;;;;;4929235;28;20199;-36
2022/11/01 05:29:12;;;;;;;6.03;3.00;;;;;;;;;;4927813;28;20543;-36
2022/11/01 05:31:38;;;;;;;5.87;2.73;;;;;;;;;;4931035;28;20175;-36
2022/11/01 05:34:04;;;;;;;7.20;2.87;;;;;;;;;;4930171;28;20183;-36
2022/11/01 05:36:30;;;;;;;5.33;2.87;;;;;;;;;;4935303;28;20182;-35
2022/11/01 05:38:56;;;;;;;2.53;2.30;;;;;;;;;;4936496;28;20651;-36
2022/11/01 05:41:22;;;;;;;5.27;2.43;;;;;;;;;;4935356;28;20298;-36
2022/11/01 05:43:48;;;;;;;6.80;2.80;;;;;;;;;;4927514;28;20307;-36
2022/11/01 05:46:15;;;;;;;5.97;2.57;;;;;;;;;;4934289;28;20324;-36
2022/11/01 05:48:41;;;;;;;3.97;2.20;;;;;;;;;;4939532;28;20242;-35
2022/11/01 05:51:07;;;;;;;9.20;2.80;;;;;;;;;;4942776;28;20182;-36
2022/11/01 05:53:34;;;;;;;3.40;2.20;;;;;;;;;;4935013;28;20485;-35
2022/11/01 05:56:00;;;;;;;6.40;2.70;;;;;;;;;;4938727;28;20182;-35
2022/11/01 05:58:26;;;;;;;4.37;2.80;;;;;;;;;;4939736;28;20770;-35
2022/11/01 06:01:02;;;;;;;7.10;2.57;;;;;;;;;;4929190;28;20186;-35
2022/11/01 06:03:29;;;;;;;3.03;2.50;;;;;;;;;;4933458;28;20416;-36
2022/11/01 06:05:55;;;;;;;6.40;2.23;;;;;;;;;;4938736;28;20198;-35
2022/11/01 06:08:21;;;;;;;3.37;2.20;;;;;;;;;;4933526;28;20549;-35
2022/11/01 06:10:47;;;;;;;4.50;2.30;;;;;;;;;;4933478;28;20817;-35
2022/11/01 06:13:13;;;;;;;4.67;2.50;;;;;;;;;;4924541;28;20256;-36
2022/11/01 06:15:39;;;;;;;4.73;2.10;;;;;;;;;;4927321;28;20612;-36
2022/11/01 06:18:06;;;;;;;4.13;2.27;;;;;;;;;;4934679;28;20460;-36
2022/11/01 06:20:32;;;;;;;4.97;2.57;;;;;;;;;;4929973;28;20285;-36
2022/11/01 06:22:59;;;;;;;4.37;2.20;;;;;;;;;;4927228;28;20242;-36
2022/11/01 06:25:28;;;;;;;3.87;2.40;;;;;;;;;;4937414;28;20459;-36
2022/11/01 06:27:54;;;;;;;5.50;2.50;;;;;;;;;;4927768;28;20186;-36
2022/11/01 06:30:20;;;;;;;4.50;2.30;;;;;;;;;;4933494;28;20174;-36
2022/11/01 06:32:47;;;;;;;5.63;2.80;;;;;;;;;;4934575;28;20253;-36
2022/11/01 06:35:14;;;;;;;5.33;2.80;;;;;;;;;;4931032;28;20487;-36
2022/11/01 06:37:40;;;;;;;5.63;2.60;;;;;;;;;;4933329;28;20187;-36
2022/11/01 06:40:06;;;;;;;7.30;2.60;;;;;;;;;;4934250;28;20458;-36
2022/11/01 06:42:32;;;;;;;8.03;2.30;;;;;;;;;;4937148;28;20178;-35
2022/11/01 06:44:58;;;;;;;6.87;2.47;;;;;;;;;;4933839;28;20179;-36
2022/11/01 06:47:25;;;;;;;6.23;2.57;;;;;;;;;;4935721;28;20213;-36
2022/11/01 06:49:51;;;;;;;5.33;2.43;;;;;;;;;;4934556;28;20714;-36
2022/11/01 06:52:17;;;;;;;4.17;2.47;;;;;;;;;;4925204;28;20178;-35
2022/11/01 06:54:43;;;;;;;6.10;2.70;;;;;;;;;;4936513;28;20797;-37
2022/11/01 06:57:09;;;;;;;6.50;2.90;;;;;;;;;;4936168;28;20178;-36
2022/11/01 06:59:35;;;;;;;4.67;2.30;;;;;;;;;;4930301;28;20179;-36
2022/11/01 07:02:01;;;;;;;3.13;2.27;;;;;;;;;;4913732;28;20314;-36
2022/11/01 07:04:28;;;;;;;4.00;2.30;;;;;;;;;;4921696;28;20649;-37
2022/11/01 07:06:54;;;;;;;3.70;2.13;;;;;;;;;;4924613;28;20667;-36
2022/11/01 07:09:20;;;;;;;4.97;2.60;;;;;;;;;;4921474;28;20250;-36
2022/11/01 07:11:46;;;;;;;4.13;2.37;;;;;;;;;;4927985;28;20846;-36
2022/11/01 07:14:12;;;;;;;3.83;2.40;;;;;;;;;;4935486;28;20281;-36
2022/11/01 07:16:39;;;;;;;5.27;2.70;;;;;;;;;;4934974;28;20561;-36
2022/11/01 07:19:05;;;;;;;4.33;2.50;;;;;;;;;;4935029;28;20175;-36
2022/11/01 07:21:31;;;;;;;7.03;3.20;;;;;;;;;;4933603;28;20198;-36
2022/11/01 07:23:57;;;;;;;5.93;3.13;;;;;;;;;;4937869;28;20498;-36
2022/11/01 07:26:23;;;;;;;5.80;3.30;;;;;;;;;;4940190;28;20199;-35
2022/11/01 07:28:49;;;;;;;6.27;3.17;;;;;;;;;;4940288;28;20265;-36
2022/11/01 07:31:15;;;;;;;2.87;2.50;;;;;;;;;;4935214;28;20182;-37
2022/11/01 07:33:41;;;;;;;4.00;2.53;;;;;;;;;;4936125;28;20527;-36
2022/11/01 07:36:07;;;;;;;4.97;3.13;;;;;;;;;;4935900;28;21076;-36
2022/11/01 07:38:33;;;;;;;6.33;2.90;;;;;;;;;;4935249;28;21226;-36
2022/11/01 07:41:00;;;;;;;4.50;2.87;;;;;;;;;;4926754;28;20190;-36
2022/11/01 07:43:26;;;;;;;6.43;2.97;;;;;;;;;;4923885;28;20736;-37
2022/11/01 07:45:52;;;;;;;4.60;2.80;;;;;;;;;;4925270;28;20207;-36
2022/11/01 07:48:18;;;;;;;6.07;2.77;;;;;;;;;;4930677;28;21032;-37
2022/11/01 07:50:45;;;;;;;7.30;3.13;;;;;;;;;;4928151;28;20858;-36
2022/11/01 07:53:16;;;;;;;9.30;3.30;;;;;;;;;;4931868;28;20201;-37
2022/11/01 07:55:42;;;;;;;6.47;3.40;;;;;;;;;;4939306;28;20912;-37
2022/11/01 07:58:09;;;;;;;6.80;3.20;;;;;;;;;;4936661;28;20306;-36
2022/11/01 08:00:35;;;;;;;8.50;3.13;;;;;;;;;;4942289;28;20257;-37
2022/11/01 08:03:03;;;;;;;13.13;3.60;;;;;;;;;;4934575;28;20277;-37
2022/11/01 08:05:30;;;;;;;6.90;3.77;;;;;;;;;;4938077;28;20186;-36
2022/11/01 08:07:56;;;;;;;6.03;3.90;;;;;;;;;;4939131;28;20997;-38
2022/11/01 08:10:22;;;;;;;6.57;3.83;;;;;;;;;;4934176;28;20175;-37
2022/11/01 08:12:48;;;;;;;8.60;3.90;;;;;;;;;;4939989;28;20185;-37
2022/11/01 08:15:14;;;;;;;6.27;3.83;;;;;;;;;;4939075;28;20210;-37
2022/11/01 08:17:40;;;;;;;7.13;3.93;;;;;;;;;;4936781;28;21041;-37
2022/11/01 08:20:07;;;;;;;6.67;3.33;;;;;;;;;;4937058;28;20466;-37
2022/11/01 08:22:33;;;;;;;5.67;3.80;;;;;;;;;;4941478;28;20279;-38
2022/11/01 08:24:59;;;;;;;7.93;3.80;;;;;;;;;;4935575;28;20194;-37
2022/11/01 08:27:25;;;;;;;7.27;3.80;;;;;;;;;;4936674;28;20635;-37
2022/11/01 08:29:51;;;;;;;7.23;3.40;;;;;;;;;;4937929;28;20186;-37
2022/11/01 08:32:20;;;;;;;8.83;3.50;;;;;;;;;;4931872;28;20182;-37
2022/11/01 08:34:47;;;;;;;10.67;3.73;;;;;;;;;;4936259;28;21018;-37
2022/11/01 08:37:13;;;;;;;6.63;3.83;;;;;;;;;;4933818;28;20178;-37
2022/11/01 08:39:39;;;;;;;7.17;3.13;;;;;;;;;;4938650;28;20189;-37
2022/11/01 08:42:06;;;;;;;6.70;3.73;;;;;;;;;;4940444;28;20202;-37
2022/11/01 08:44:33;;;;;;;8.33;3.47;;;;;;;;;;4937678;28;20183;-37
2022/11/01 08:47:00;;;;;;;7.90;3.67;;;;;;;;;;4930299;28;20221;-37
2022/11/01 08:49:26;;;;;;;10.00;3.83;;;;;;;;;;4935836;28;20178;-37
2022/11/01 08:51:52;;;;;;;7.43;3.67;;;;;;;;;;4930548;28;20493;-37
2022/11/01 08:54:19;;;;;;;5.90;3.90;;;;;;;;;;4929935;28;21434;-37
2022/11/01 08:56:45;;;;;;;4.50;3.30;;;;;;;;;;4933871;28;20305;-37
2022/11/01 08:59:11;;;;;;;10.07;4.37;;;;;;;;;;4932752;28;20210;-37
2022/11/01 09:01:38;;;;;;;8.57;3.90;;;;;;;;;;4926756;28;20179;-37
2022/11/01 09:04:05;;;;;;;12.13;4.03;;;;;;;;;;4932109;28;20731;-37
2022/11/01 09:06:31;;;;;;;7.33;4.03;;;;;;;;;;4936543;28;20197;-36
2022/11/01 09:08:57;;;;;;;13.17;4.37;;;;;;;;;;4932076;28;20933;-37
2022/11/01 09:11:24;;;;;;;6.90;3.50;;;;;;;;;;4926094;28;20550;-37
2022/11/01 09:13:52;;;;;;;7.67;4.20;;;;;;;;;;4927937;28;20173;-37
2022/11/01 09:16:18;;;;;;;8.70;4.40;;;;;;;;;;4929830;28;20194;-37
2022/11/01 09:18:44;;;;;;;10.10;4.67;;;;;;;;;;4928135;28;20389;-36
2022/11/01 09:21:10;;;;;;;12.20;6.13;;;;;;;;;;4937211;28;20611;-37
2022/11/01 09:23:37;;;;;;;14.53;6.57;;;;;;;;;;4940697;28;20178;-37
2022/11/01 09:26:04;;;;;;;16.30;7.57;;;;;;;;;;4940636;28;20804;-37
2022/11/01 09:28:31;;;;;;;10.50;6.40;;;;;;;;;;4939602;28;20424;-37
2022/11/01 09:31:00;;;;;;;12.43;6.63;;;;;;;;;;4945346;28;20978;-37
2022/11/01 09:33:26;;;;;;;14.20;7.13;;;;;;;;;;4940265;28;20179;-37
2022/11/01 09:35:53;;;;;;;11.73;7.10;;;;;;;;;;4940760;28;20303;-37
2022/11/01 09:38:19;;;;;;;15.20;7.77;;;;;;;;;;4942151;28;20179;-37
2022/11/01 09:40:46;;;;;;;13.17;8.07;;;;;;;;;;4941128;28;20912;-36
2022/11/01 09:43:18;;;;;;;16.43;8.07;;;;;;;;;;4940034;28;20997;-37
2022/11/01 09:45:45;;;;;;;14.23;9.00;;;;;;;;;;4942033;28;20341;-39
2022/11/01 09:48:13;;;;;;;18.53;9.70;;;;;;;;;;4946690;28;20187;-37
2022/11/01 09:50:42;;;;;;;13.80;8.57;;;;;;;;;;4939322;28;20790;-37
2022/11/01 09:53:12;;;;;;;17.83;8.23;;;;;;;;;;4940132;28;20175;-37
2022/11/01 09:55:50;;;;;;;18.47;9.27;;;;;;;;;;4942352;28;20409;-37
2022/11/01 09:58:19;;;;;;;14.73;7.80;;;;;;;;;;4938677;28;20804;-37
2022/11/01 10:00:51;;;;;;;15.43;9.07;;;;;;;;;;4938462;28;20490;-37
2022/11/01 10:03:33;;;;;;;20.57;9.30;;;;;;;;;;4939928;28;20612;-37
2022/11/01 10:05:59;;;;;;;18.80;10.50;;;;;;;;;;4934201;28;21015;-38
2022/11/01 10:08:26;;;;;;;19.03;10.07;;;;;;;;;;4934919;28;21189;-37
2022/11/01 10:11:01;;;;;;;19.77;10.43;;;;;;;;;;4940216;28;20175;-37
2022/11/01 10:13:34;;;;;;;25.30;11.83;;;;;;;;;;4938417;28;20174;-37
2022/11/01 10:16:12;;;;;;;19.63;10.43;;;;;;;;;;4928291;28;20268;-37
2022/11/01 10:18:55;;;;;;;18.67;10.93;;;;;;;;;;4932312;28;20234;-37
2022/11/01 10:21:21;;;;;;;23.27;13.37;;;;;;;;;;4925627;28;20249;-37
2022/11/01 10:23:52;;;;;;;20.90;12.60;;;;;;;;;;4927416;28;20618;-36
2022/11/01 10:26:21;;;;;;;22.40;11.93;;;;;;;;;;4927913;28;20286;-37
2022/11/01 10:28:47;;;;;;;23.00;11.07;;;;;;;;;;4927492;28;20590;-37
2022/11/01 10:31:19;;;;;;;21.03;11.87;;;;;;;;;;4927069;28;20179;-37
2022/11/01 10:33:55;;;;;;;19.20;11.30;;;;;;;;;;4935567;28;20179;-37
2022/11/01 10:36:23;;;;;;;19.80;11.73;;;;;;;;;;4936554;28;20654;-36
2022/11/01 10:38:56;;;;;;;25.83;12.37;;;;;;;;;;4933722;28;20189;-37
2022/11/01 10:41:39;;;;;;;17.20;10.40;;;;;;;;;;4937480;28;20190;-37
2022/11/01 10:44:08;;;;;;;24.00;11.83;;;;;;;;;;4940052;28;20955;-37
2022/11/01 10:46:39;;;;;;;22.80;11.63;;;;;;;;;;4939731;28;20300;-36
2022/11/01 10:49:11;;;;;;;26.00;12.17;;;;;;;;;;4940279;28;20222;-37
2022/11/01 10:51:40;;;;;;;22.40;10.97;;;;;;;;;;4936204;28;20183;-37
2022/11/01 10:54:10;;;;;;;17.07;10.77;;;;;;;;;;4939222;28;21016;-37
2022/11/01 10:56:42;;;;;;;23.33;11.43;;;;;;;;;;4940347;28;21467;-37
2022/11/01 10:59:28;;;;;;;21.70;11.97;;;;;;;;;;4936861;28;20634;-37
2022/11/01 11:01:55;;;;;;;19.80;12.03;;;;;;;;;;4940772;28;20182;-37
2022/11/01 11:04:23;;;;;;;25.73;12.50;;;;;;;;;;4940635;28;20951;-37
2022/11/01 11:06:50;;;;;;;18.77;11.10;;;;;;;;;;4938018;28;20980;-37
2022/11/01 11:09:22;;;;;;;18.73;10.97;;;;;;;;;;4937621;28;20285;-37
2022/11/01 11:11:49;;;;;;;22.73;11.47;;;;;;;;;;4943142;28;20214;-37
2022/11/01 11:14:15;;;;;;;20.80;11.30;;;;;;;;;;4935599;28;20183;-37
2022/11/01 11:16:58;;;;;;;21.30;11.27;;;;;;;;;;4934634;28;20225;-37
2022/11/01 11:19:32;;;;;;;19.70;10.77;;;;;;;;;;4937506;28;20219;-37
2022/11/01 11:21:58;;;;;;;21.40;11.90;;;;;;;;;;4941525;28;20206;-36
2022/11/01 11:24:26;;;;;;;20.50;11.23;;;;;;;;;;4933809;28;20859;-37
2022/11/01 11:26:54;;;;;;;21.50;11.23;;;;;;;;;;4934391;28;20206;-37
2022/11/01 11:29:29;;;;;;;19.03;10.13;;;;;;;;;;4937497;28;20190;-37
2022/11/01 11:31:57;;;;;;;16.77;10.47;;;;;;;;;;4931607;28;20772;-36
2022/11/01 11:34:27;;;;;;;20.27;10.20;;;;;;;;;;4926153;28;20377;-37
2022/11/01 11:36:54;;;;;;;22.27;10.00;;;;;;;;;;4926413;28;20844;-37
2022/11/01 11:39:31;;;;;;;19.63;9.67;;;;;;;;;;4925132;28;20559;-37
2022/11/01 11:42:09;;;;;;;19.47;9.70;;;;;;;;;;4921589;28;20239;-37
2022/11/01 11:44:36;;;;;;;16.93;9.27;;;;;;;;;;4924270;28;20186;-37
2022/11/01 11:47:02;;;;;;;18.70;9.80;;;;;;;;;;4923905;28;20556;-37
2022/11/01 11:49:29;;;;;;;14.03;9.80;;;;;;;;;;4921294;28;20183;-37
2022/11/01 11:51:55;;;;;;;15.37;9.13;;;;;;;;;;4913784;28;20743;-36
2022/11/01 11:54:21;;;;;;;15.20;9.73;;;;;;;;;;4927142;28;20178;-37
2022/11/01 11:56:49;;;;;;;23.27;11.43;;;;;;;;;;4932620;28;20805;-37
2022/11/01 11:59:24;;;;;;;23.43;12.40;;;;;;;;;;4931616;28;20448;-37
2022/11/01 12:01:55;;;;;;;20.50;10.87;;;;;;;;;;4934633;28;20273;-37
2022/11/01 12:04:22;;;;;;;19.23;10.40;;;;;;;;;;4929623;28;21844;-37
2022/11/01 12:06:48;;;;;;;19.47;10.97;;;;;;;;;;4931018;28;20687;-37
2022/11/01 12:09:33;;;;;;;18.37;10.53;;;;;;;;;;4937333;28;20199;-37
2022/11/01 12:12:05;;;;;;;24.07;11.20;;;;;;;;;;4938487;28;21014;-37
2022/11/01 12:14:34;;;;;;;20.23;11.37;;;;;;;;;;4932558;28;20190;-37
2022/11/01 12:17:00;;;;;;;21.77;12.03;;;;;;;;;;4928609;28;20720;-37
2022/11/01 12:19:28;;;;;;;24.50;11.10;;;;;;;;;;4932046;28;20211;-38
2022/11/01 12:21:55;;;;;;;24.70;11.77;;;;;;;;;;4934135;28;20602;-37
2022/11/01 12:24:24;;;;;;;20.27;11.90;;;;;;;;;;4928168;28;20865;-37
2022/11/01 12:26:51;;;;;;;20.37;11.80;;;;;;;;;;4930502;28;20790;-37
2022/11/01 12:29:26;;;;;;;20.70;11.57;;;;;;;;;;4933813;28;20524;-37
2022/11/01 12:31:53;;;;;;;20.63;11.47;;;;;;;;;;4935872;28;20565;-37
2022/11/01 12:34:25;;;;;;;18.67;10.70;;;;;;;;;;4934446;28;20178;-36
2022/11/01 12:37:14;;;;;;;18.20;10.10;;;;;;;;;;4930245;28;20452;-37
2022/11/01 12:39:44;;;;;;;18.63;9.80;;;;;;;;;;4928708;28;20199;-37
2022/11/01 12:42:14;;;;;;;24.27;10.93;;;;;;;;;;4933599;28;20435;-36
2022/11/01 12:44:42;;;;;;;20.27;10.80;;;;;;;;;;4937956;28;20659;-37
2022/11/01 12:47:17;;;;;;;18.73;10.13;;;;;;;;;;4937080;28;21533;-37
2022/11/01 12:49:52;;;;;;;19.30;10.80;;;;;;;;;;4935804;28;20177;-37
2022/11/01 12:52:25;;;;;;;23.60;11.20;;;;;;;;;;4934897;28;20523;-37
2022/11/01 12:55:10;;;;;;;15.43;9.97;;;;;;;;;;4933320;28;20747;-36
2022/11/01 12:57:36;;;;;;;21.90;11.10;;;;;;;;;;4933498;28;20289;-37
2022/11/01 13:00:04;;;;;;;25.03;11.20;;;;;;;;;;4935129;28;20490;-36
2022/11/01 13:02:43;;;;;;;19.20;11.30;;;;;;;;;;4933954;28;20183;-37
2022/11/01 13:05:15;;;;;;;20.37;10.57;;;;;;;;;;4935542;28;20265;-37
2022/11/01 13:07:42;;;;;;;23.23;10.80;;;;;;;;;;4936374;28;20585;-37
2022/11/01 13:10:14;;;;;;;21.87;11.33;;;;;;;;;;4935590;28;20309;-36
2022/11/01 13:12:52;;;;;;;19.73;10.57;;;;;;;;;;4933671;28;20339;-37
2022/11/01 13:15:21;;;;;;;16.93;10.47;;;;;;;;;;4937348;28;20175;-36
2022/11/01 13:17:50;;;;;;;19.00;11.20;;;;;;;;;;4933144;28;20285;-37
2022/11/01 13:20:33;;;;;;;20.10;10.33;;;;;;;;;;4934532;28;20184;-36
2022/11/01 13:22:59;;;;;;;17.73;10.10;;;;;;;;;;4934583;28;20197;-37
2022/11/01 13:25:34;;;;;;;18.33;10.30;;;;;;;;;;4938002;28;20252;-37
2022/11/01 13:28:12;;;;;;;18.50;9.77;;;;;;;;;;4936197;28;20174;-36
2022/11/01 13:30:40;;;;;;;19.67;9.63;;;;;;;;;;4932874;28;20674;-37
2022/11/01 13:33:23;;;;;;;20.30;10.80;;;;;;;;;;4936473;28;20179;-37
2022/11/01 13:35:52;;;;;;;17.63;10.40;;;;;;;;;;4933931;28;20170;-37
2022/11/01 13:38:30;;;;;;;20.13;10.37;;;;;;;;;;4935086;28;20563;-37
2022/11/01 13:41:04;;;;;;;16.53;9.97;;;;;;;;;;4935218;28;20179;-36
2022/11/01 13:43:36;;;;;;;19.77;11.00;;;;;;;;;;4934092;28;20190;-37
2022/11/01 13:46:11;;;;;;;21.13;11.57;;;;;;;;;;4922013;28;20997;-37
2022/11/01 13:48:43;;;;;;;18.93;10.93;;;;;;;;;;4934382;28;20170;-37
2022/11/01 13:51:09;;;;;;;21.23;10.23;;;;;;;;;;4939566;28;20186;-37
2022/11/01 13:53:43;;;;;;;18.57;10.60;;;;;;;;;;4935735;28;20174;-37
2022/11/01 13:56:23;;;;;;;18.80;10.23;;;;;;;;;;4935706;28;20772;-37
2022/11/01 13:58:49;;;;;;;15.57;9.47;;;;;;;;;;4937502;28;20476;-37
2022/11/01 14:01:27;;;;;;;16.83;9.60;;;;;;;;;;4938011;28;20230;-36
2022/11/01 14:04:26;;;;;;;19.67;9.97;;;;;;;;;;4936969;28;20629;-37
2022/11/01 14:07:10;;;;;;;22.10;10.60;;;;;;;;;;4920121;28;20221;-36
2022/11/01 14:09:54;;;;;;;16.10;9.50;;;;;;;;;;4933467;28;20488;-36
2022/11/01 14:12:38;;;;;;;15.67;9.57;;;;;;;;;;4937754;28;20377;-36
2022/11/01 14:15:13;;;;;;;17.33;10.30;;;;;;;;;;4937115;28;20183;-37
2022/11/01 14:17:45;;;;;;;16.33;9.90;;;;;;;;;;4934887;28;20642;-36
2022/11/01 14:20:13;;;;;;;21.67;10.23;;;;;;;;;;4930515;28;20208;-37
2022/11/01 14:22:42;;;;;;;16.50;9.97;;;;;;;;;;4933380;28;20492;-36
2022/11/01 14:25:11;;;;;;;20.80;9.93;;;;;;;;;;4935326;28;20293;-37
2022/11/01 14:27:39;;;;;;;20.07;10.10;;;;;;;;;;4926472;28;20612;-36
2022/11/01 14:30:19;;;;;;;14.47;9.10;;;;;;;;;;4929368;28;20704;-36
2022/11/01 14:32:56;;;;;;;14.00;9.10;;;;;;;;;;4925407;28;20952;-37
2022/11/01 14:35:36;;;;;;;16.87;9.07;;;;;;;;;;4924320;28;20253;-36
2022/11/01 14:38:04;;;;;;;15.57;8.83;;;;;;;;;;4920856;28;20594;-37
2022/11/01 14:40:36;;;;;;;16.70;9.67;;;;;;;;;;4927519;28;20222;-37
2022/11/01 14:43:10;;;;;;;11.33;8.20;;;;;;;;;;4921433;28;20214;-37
2022/11/01 14:45:39;;;;;;;18.13;9.27;;;;;;;;;;4916916;28;20785;-36
2022/11/01 14:48:11;;;;;;;16.93;9.20;;;;;;;;;;4927005;28;20821;-36